Time;durP1;ratioP1;P1;durP2;ratioP2;P2;SDS_P1;SDS_P2;PMS_P1;PMS_P2;Temp;Humidity;BMP_temperature;BMP_pressure;BME280_temperature;BME280_humidity;BME280_pressure;Samples;Min_cycle;Max_cycle;Signal;HPM_P1;HPM_P2
2023/06/17 00:01:59;;;;;;;1.13;1.02;;;;;;;17.45;76.45;94491.13;5135117;27;20056;-80
2023/06/17 00:04:25;;;;;;;1.00;0.90;;;;;;;17.29;77.03;94476.78;5116847;28;20091;-80
2023/06/17 00:06:50;;;;;;;6.07;1.55;;;;;;;17.36;76.45;94501.94;5115164;28;20031;-80
2023/06/17 00:09:16;;;;;;;2.22;1.10;;;;;;;17.40;76.99;94520.00;5134955;27;20500;-80
2023/06/17 00:11:41;;;;;;;5.13;1.30;;;;;;;17.12;77.68;94495.72;5135335;27;20023;-80
2023/06/17 00:14:07;;;;;;;5.50;1.25;;;;;;;17.46;77.38;94527.53;5116221;28;20454;-80
2023/06/17 00:16:36;;;;;;;3.28;1.38;;;;;;;17.06;77.79;94479.09;5134325;28;20031;-80
2023/06/17 00:19:04;;;;;;;2.20;1.33;;;;;;;17.07;78.15;94498.63;5134858;28;20024;-80
2023/06/17 00:21:30;;;;;;;3.15;1.30;;;;;;;17.29;78.65;94519.66;5116401;28;20031;-80
2023/06/17 00:23:55;;;;;;;1.75;1.20;;;;;;;16.49;78.33;94404.78;5113190;27;20038;-80
2023/06/17 00:26:21;;;;;;;1.95;1.17;;;;;;;17.31;78.96;94522.81;5110422;28;20065;-80
2023/06/17 00:28:46;;;;;;;1.40;1.30;;;;;;;16.29;79.95;94364.66;5117768;27;20114;-80
2023/06/17 00:31:12;;;;;;;3.92;1.65;;;;;;;17.13;80.67;94499.97;5120450;27;20027;-80
2023/06/17 00:33:37;;;;;;;1.40;1.30;;;;;;;17.01;80.35;94500.72;5138669;27;20035;-80
2023/06/17 00:36:03;;;;;;;6.57;2.03;;;;;;;17.07;83.40;94517.38;5140038;27;20031;-80
2023/06/17 00:38:29;;;;;;;6.15;2.15;;;;;;;16.77;83.31;94481.88;5120937;27;20038;-80
2023/06/17 00:40:54;;;;;;;1.88;1.70;;;;;;;16.34;83.86;94504.38;5139034;27;20142;-80
2023/06/17 00:43:20;;;;;;;3.20;1.85;;;;;;;16.02;84.99;94463.03;5119619;27;20468;-80
2023/06/17 00:45:46;;;;;;;2.10;1.80;;;;;;;16.30;85.95;94529.44;5119793;27;20117;-80
2023/06/17 00:48:12;;;;;;;4.20;1.98;;;;;;;16.06;86.66;94509.44;5138322;27;20031;-80
2023/06/17 00:50:37;;;;;;;4.60;2.17;;;;;;;15.88;86.93;94494.59;5119879;27;20038;-80
2023/06/17 00:53:04;;;;;;;10.60;2.70;;;;;;;15.95;87.38;94494.88;5138560;27;20607;-80
2023/06/17 00:55:32;;;;;;;8.82;2.67;;;;;;;16.11;87.61;94490.53;5119893;27;20039;-80
2023/06/17 00:57:59;;;;;;;4.50;2.75;;;;;;;16.08;87.89;94483.16;5138036;27;20422;-80
2023/06/17 01:00:25;;;;;;;8.95;2.70;;;;;;;16.25;87.46;94519.69;5138490;27;20038;-80
2023/06/17 01:02:50;;;;;;;5.80;2.50;;;;;;;15.99;87.41;94484.31;5137784;27;20062;-80
2023/06/17 01:05:17;;;;;;;5.82;2.80;;;;;;;16.18;87.98;94520.22;5118956;27;20035;-80
2023/06/17 01:07:43;;;;;;;3.53;2.88;;;;;;;16.08;88.44;94515.25;5118927;27;20047;-80
2023/06/17 01:10:30;;;;;;;3.72;2.78;;;;;;;15.93;89.09;94491.75;5119808;27;20039;-80
2023/06/17 01:12:58;;;;;;;7.30;3.03;;;;;;;16.09;88.15;94502.66;5119646;27;20065;-80
2023/06/17 01:15:25;;;;;;;3.17;2.85;;;;;;;16.04;88.12;94481.44;5118984;27;20117;-80
2023/06/17 01:17:54;;;;;;;6.35;3.03;;;;;;;16.17;87.00;94502.59;5119942;27;20061;-80
2023/06/17 01:20:22;;;;;;;3.38;2.45;;;;;;;16.31;88.37;94512.28;5119049;27;20076;-80
2023/06/17 01:22:52;;;;;;;4.28;3.10;;;;;;;16.01;88.80;94523.00;5118444;27;20386;-80
2023/06/17 01:25:20;;;;;;;4.97;3.25;;;;;;;15.75;88.60;94460.84;5118356;27;20034;-80
2023/06/17 01:27:49;;;;;;;8.70;3.50;;;;;;;15.68;89.67;94456.00;5137361;27;20062;-80
2023/06/17 01:30:15;;;;;;;3.30;2.88;;;;;;;16.21;90.41;94518.78;5137081;27;20027;-80
2023/06/17 01:32:40;;;;;;;4.50;3.35;;;;;;;15.60;89.91;94462.19;5118580;27;20038;-80
2023/06/17 01:35:10;;;;;;;4.05;3.15;;;;;;;16.02;89.06;94513.84;5137937;27;20095;-80
2023/06/17 01:37:48;;;;;;;4.80;3.17;;;;;;;15.96;88.98;94506.34;5118362;27;20038;-79
2023/06/17 01:40:16;;;;;;;5.10;3.05;;;;;;;15.38;89.37;94417.78;5118439;27;20027;-79
2023/06/17 01:42:46;;;;;;;4.45;2.58;;;;;;;15.70;90.49;94447.69;5118223;27;20027;-79
2023/06/17 01:45:13;;;;;;;4.80;3.58;;;;;;;15.72;89.69;94443.56;5118271;27;20493;-79
2023/06/17 01:47:39;;;;;;;4.13;3.35;;;;;;;15.77;90.01;94440.72;5136694;27;20035;-79
2023/06/17 01:50:06;;;;;;;7.05;3.53;;;;;;;15.97;89.04;94503.34;5112090;27;20129;-79
2023/06/17 01:52:33;;;;;;;11.02;3.05;;;;;;;15.16;89.35;94402.00;5109156;28;20020;-79
2023/06/17 01:54:59;;;;;;;5.50;3.65;;;;;;;15.58;90.84;94506.38;5116997;27;20034;-79
2023/06/17 01:57:26;;;;;;;3.47;3.17;;;;;;;15.68;92.84;94500.66;5136595;27;20061;-79
2023/06/17 01:59:53;;;;;;;8.00;3.72;;;;;;;15.58;91.96;94467.06;5117821;27;20023;-79
2023/06/17 02:02:18;;;;;;;4.82;3.20;;;;;;;15.88;91.69;94483.09;5136035;27;20039;-79
2023/06/17 02:04:46;;;;;;;4.40;3.55;;;;;;;15.73;92.65;94455.81;5117306;27;20118;-79
2023/06/17 02:07:11;;;;;;;4.13;3.38;;;;;;;15.60;91.42;94450.72;5117171;27;20039;-79
2023/06/17 02:09:37;;;;;;;5.70;3.25;;;;;;;15.97;91.61;94487.31;5136662;27;20047;-79
2023/06/17 02:12:04;;;;;;;6.93;3.05;;;;;;;15.79;90.07;94461.78;5117811;27;20027;-79
2023/06/17 02:14:30;;;;;;;4.93;3.00;;;;;;;15.90;90.89;94503.06;5117723;27;20501;-79
2023/06/17 02:16:56;;;;;;;6.47;3.85;;;;;;;16.08;91.22;94506.44;5117258;27;20112;-79
2023/06/17 02:19:22;;;;;;;5.40;3.08;;;;;;;15.91;90.41;94488.59;5117850;27;20031;-79
2023/06/17 02:21:48;;;;;;;5.68;3.30;;;;;;;15.91;91.16;94467.22;5136066;27;20092;-79
2023/06/17 02:24:14;;;;;;;5.63;2.80;;;;;;;15.43;91.42;94473.69;5117290;27;20035;-79
2023/06/17 02:26:41;;;;;;;5.85;3.13;;;;;;;15.64;91.86;94507.78;5117345;27;20039;-80
2023/06/17 02:29:07;;;;;;;5.85;3.17;;;;;;;15.47;92.90;94486.44;5136031;27;20114;-79
2023/06/17 02:31:33;;;;;;;9.43;3.45;;;;;;;15.77;92.68;94501.41;5117154;27;20041;-79
2023/06/17 02:33:59;;;;;;;6.75;3.42;;;;;;;15.72;92.65;94456.13;5117352;27;20045;-79
2023/06/17 02:36:25;;;;;;;3.33;3.03;;;;;;;15.72;90.84;94456.13;5136299;27;20039;-79
2023/06/17 02:38:52;;;;;;;9.15;2.80;;;;;;;15.89;90.85;94490.03;5117585;27;20042;-79
2023/06/17 02:41:18;;;;;;;4.15;2.90;;;;;;;15.97;90.13;94500.69;5117391;27;20600;-79
2023/06/17 02:43:43;;;;;;;6.85;2.60;;;;;;;15.50;90.04;94451.03;5116900;27;20114;-78
2023/06/17 02:46:09;;;;;;;4.70;2.90;;;;;;;15.60;90.97;94478.22;5116844;27;20532;-79
2023/06/17 02:48:35;;;;;;;4.85;3.25;;;;;;;15.76;91.47;94507.88;5134367;27;20039;-78
2023/06/17 02:51:01;;;;;;;5.32;3.22;;;;;;;15.44;90.57;94455.78;5116885;27;20031;-79
2023/06/17 02:53:26;;;;;;;7.45;2.65;;;;;;;15.27;92.17;94423.78;5116982;27;20083;-79
2023/06/17 02:55:53;;;;;;;4.78;2.80;;;;;;;15.08;90.63;94386.81;5117235;27;20481;-79
2023/06/17 02:58:19;;;;;;;4.72;2.95;;;;;;;15.65;92.77;94477.25;5135740;27;20473;-79
2023/06/17 03:00:45;;;;;;;3.85;2.30;;;;;;;15.79;91.19;94517.94;5135252;27;20108;-79
2023/06/17 03:03:11;;;;;;;2.97;2.45;;;;;;;15.69;91.69;94483.53;5116777;27;20070;-79
2023/06/17 03:05:37;;;;;;;3.67;2.67;;;;;;;15.01;90.45;94395.31;5116215;27;20484;-79
2023/06/17 03:08:06;;;;;;;2.65;2.30;;;;;;;15.52;90.44;94467.53;5134587;27;20047;-79
2023/06/17 03:10:32;;;;;;;4.38;2.80;;;;;;;15.28;91.91;94447.50;5135297;27;20185;-79
2023/06/17 03:12:58;;;;;;;3.90;2.65;;;;;;;15.23;92.69;94420.19;5135434;27;20031;-79
2023/06/17 03:15:23;;;;;;;2.63;2.42;;;;;;;15.78;92.35;94498.44;5116086;27;20080;-79
2023/06/17 03:17:50;;;;;;;3.28;2.65;;;;;;;15.84;92.33;94512.41;5115523;27;20412;-79
2023/06/17 03:20:16;;;;;;;4.03;3.05;;;;;;;15.87;92.71;94489.59;5115858;27;20041;-79
2023/06/17 03:22:41;;;;;;;4.00;3.28;;;;;;;15.20;91.90;94399.47;5115941;27;20476;-79
2023/06/17 03:25:07;;;;;;;5.43;3.10;;;;;;;15.88;92.01;94532.03;5135237;27;20035;-79
2023/06/17 03:27:33;;;;;;;6.20;3.10;;;;;;;15.88;91.43;94504.50;5135085;27;20168;-79
2023/06/17 03:30:01;;;;;;;5.03;3.05;;;;;;;16.18;90.99;94535.47;5115551;27;20120;-79
2023/06/17 03:32:26;;;;;;;2.80;2.50;;;;;;;15.83;90.61;94500.13;5116089;27;20035;-79
2023/06/17 03:34:54;;;;;;;4.07;3.22;;;;;;;16.14;91.68;94535.34;5134854;27;20187;-79
2023/06/17 03:37:20;;;;;;;7.03;2.75;;;;;;;15.69;90.58;94444.22;5116133;27;20417;-79
2023/06/17 03:39:46;;;;;;;2.97;2.67;;;;;;;15.79;90.96;94483.94;5116701;27;20042;-79
2023/06/17 03:42:14;;;;;;;4.88;2.88;;;;;;;15.65;90.21;94488.72;5134640;27;20038;-79
2023/06/17 03:44:40;;;;;;;3.53;2.97;;;;;;;15.75;91.24;94498.28;5115962;27;20134;-79
2023/06/17 03:47:06;;;;;;;5.75;3.30;;;;;;;15.73;92.49;94517.31;5116095;27;20039;-80
2023/06/17 03:49:31;;;;;;;4.95;3.13;;;;;;;15.90;91.44;94543.19;5134177;27;20031;-79
2023/06/17 03:51:57;;;;;;;3.40;2.92;;;;;;;15.62;90.74;94513.44;5133788;27;20027;-79
2023/06/17 03:54:22;;;;;;;3.75;3.35;;;;;;;15.53;91.36;94493.97;5134077;27;20043;-79
2023/06/17 03:56:48;;;;;;;3.88;3.25;;;;;;;15.61;91.45;94527.13;5115064;27;20027;-79
2023/06/17 03:59:15;;;;;;;5.60;3.15;;;;;;;15.55;91.77;94534.53;5133206;27;20486;-79
2023/06/17 04:01:41;;;;;;;9.38;3.10;;;;;;;15.33;93.53;94537.41;5115958;27;20497;-79
2023/06/17 04:04:07;;;;;;;7.65;3.83;;;;;;;15.10;94.80;94518.13;5115892;27;20035;-79
2023/06/17 04:06:33;;;;;;;3.08;2.78;;;;;;;15.25;95.07;94540.88;5116221;27;20125;-79
2023/06/17 04:08:59;;;;;;;4.80;2.70;;;;;;;14.98;94.32;94529.44;5115518;27;20051;-80
2023/06/17 04:11:28;;;;;;;9.13;3.17;;;;;;;15.20;95.74;94555.16;5116025;27;20047;-79
2023/06/17 04:13:54;;;;;;;6.50;3.10;;;;;;;14.73;94.94;94473.41;5115907;28;20103;-79
2023/06/17 04:16:19;;;;;;;7.97;3.30;;;;;;;15.02;96.02;94524.25;5115424;28;20059;-79
2023/06/17 04:18:45;;;;;;;8.80;3.60;;;;;;;15.22;96.73;94563.66;5134067;28;20055;-80
2023/06/17 04:21:11;;;;;;;5.78;3.20;;;;;;;14.94;96.37;94522.38;5114168;28;20053;-79
2023/06/17 04:23:37;;;;;;;5.45;3.08;;;;;;;15.26;96.49;94559.22;5134767;28;20028;-80
2023/06/17 04:26:03;;;;;;;4.15;2.95;;;;;;;15.19;95.66;94553.59;5134244;28;20079;-80
2023/06/17 04:28:31;;;;;;;5.40;3.00;;;;;;;15.44;94.97;94581.38;5116011;28;20042;-79
2023/06/17 04:31:00;;;;;;;4.55;3.33;;;;;;;15.44;94.37;94566.13;5134284;28;20035;-79
2023/06/17 04:33:26;;;;;;;3.90;2.92;;;;;;;15.42;94.35;94584.34;5114938;28;20171;-79
2023/06/17 04:35:51;;;;;;;4.63;2.70;;;;;;;15.13;94.39;94533.50;5133666;28;20027;-79
2023/06/17 04:38:17;;;;;;;4.13;2.90;;;;;;;15.41;94.76;94587.31;5115266;28;20195;-80
2023/06/17 04:40:43;;;;;;;5.78;2.75;;;;;;;15.39;95.01;94565.50;5134327;28;20031;-79
2023/06/17 04:43:09;;;;;;;3.75;2.60;;;;;;;15.36;94.64;94547.44;5134787;28;20120;-79
2023/06/17 04:45:35;;;;;;;2.67;2.28;;;;;;;15.42;94.00;94567.53;5134673;28;20035;-80
2023/06/17 04:48:05;;;;;;;5.22;2.63;;;;;;;15.54;94.55;94561.56;5115484;28;20031;-79
2023/06/17 04:50:33;;;;;;;6.00;2.22;;;;;;;15.36;94.39;94556.22;5114973;28;20035;-79
2023/06/17 04:53:05;;;;;;;6.13;2.83;;;;;;;15.19;96.04;94545.56;5115224;28;20398;-79
2023/06/17 04:55:35;;;;;;;5.78;2.38;;;;;;;14.92;96.39;94511.22;5115094;28;20092;-80
2023/06/17 04:58:04;;;;;;;4.78;1.90;;;;;;;15.38;95.60;94588.78;5134426;28;20027;-79
2023/06/17 05:00:30;;;;;;;4.20;2.55;;;;;;;15.31;96.77;94590.34;5133497;28;20038;-79
2023/06/17 05:02:56;;;;;;;7.05;2.40;;;;;;;15.51;98.18;94586.22;5115569;28;20473;-79
2023/06/17 05:05:22;;;;;;;2.95;1.67;;;;;;;15.33;95.75;94570.22;5115632;28;20102;-79
2023/06/17 05:07:47;;;;;;;7.00;2.05;;;;;;;14.81;94.74;94497.41;5115126;28;20086;-79
2023/06/17 05:10:14;;;;;;;4.47;1.77;;;;;;;14.94;95.93;94514.38;5114930;27;20032;-78
2023/06/17 05:12:40;;;;;;;2.45;1.80;;;;;;;15.07;95.79;94518.75;5117862;27;20059;-78
2023/06/17 05:15:07;;;;;;;2.67;1.63;;;;;;;15.37;96.92;94570.38;5118040;27;20095;-79
2023/06/17 05:17:32;;;;;;;2.58;1.83;;;;;;;15.40;95.92;94589.25;5101802;27;20062;-80
2023/06/17 05:19:57;;;;;;;1.95;1.40;;;;;;;15.45;95.50;94601.66;5118568;27;20227;-79
2023/06/17 05:22:23;;;;;;;3.42;1.50;;;;;;;15.45;95.56;94577.59;5136932;27;20031;-79
2023/06/17 05:24:48;;;;;;;7.45;1.73;;;;;;;15.06;94.74;94535.88;5118836;27;20122;-79
2023/06/17 05:27:14;;;;;;;5.15;2.13;;;;;;;15.53;95.83;94581.34;5118898;27;20053;-79
2023/06/17 05:29:40;;;;;;;5.30;2.13;;;;;;;15.36;95.74;94574.16;5137507;27;20042;-80
2023/06/17 05:32:06;;;;;;;7.00;1.90;;;;;;;15.62;94.40;94606.19;5137156;27;20035;-79
2023/06/17 05:34:32;;;;;;;5.95;1.50;;;;;;;15.57;95.41;94611.69;5129946;27;20023;-79
2023/06/17 05:36:57;;;;;;;5.43;1.55;;;;;;;15.13;95.37;94570.88;5116879;27;20056;-79
2023/06/17 05:39:22;;;;;;;4.50;1.73;;;;;;;14.89;97.19;94517.19;5118467;27;20105;-79
2023/06/17 05:41:48;;;;;;;2.97;1.90;;;;;;;15.54;96.89;94596.31;5118299;27;20031;-80
2023/06/17 05:44:13;;;;;;;5.60;1.95;;;;;;;14.90;96.43;94511.53;5118504;27;20034;-79
2023/06/17 05:46:39;;;;;;;2.50;1.77;;;;;;;15.27;96.21;94571.50;5117909;27;20095;-79
2023/06/17 05:49:04;;;;;;;8.63;2.17;;;;;;;15.31;97.88;94567.09;5117510;27;20031;-79
2023/06/17 05:51:30;;;;;;;4.80;1.83;;;;;;;15.38;96.19;94588.78;5137017;27;20519;-79
2023/06/17 05:53:55;;;;;;;6.22;2.20;;;;;;;15.27;96.93;94552.78;5118376;27;20027;-79
2023/06/17 05:56:21;;;;;;;2.40;2.03;;;;;;;15.16;95.93;94537.44;5136657;27;20079;-79
2023/06/17 05:58:46;;;;;;;5.78;1.77;;;;;;;15.47;96.04;94579.94;5118428;27;20193;-79
2023/06/17 06:01:13;;;;;;;2.83;1.70;;;;;;;15.62;96.58;94600.84;5118166;27;20031;-79
2023/06/17 06:03:39;;;;;;;6.70;2.28;;;;;;;15.60;97.15;94593.16;5110685;28;20512;-79
2023/06/17 06:06:04;;;;;;;3.45;1.60;;;;;;;15.48;94.83;94582.31;5117436;27;20066;-79
2023/06/17 06:08:30;;;;;;;4.40;1.70;;;;;;;15.37;95.75;94584.53;5114560;28;20052;-79
2023/06/17 06:10:55;;;;;;;4.22;2.20;;;;;;;15.42;96.71;94572.88;5134672;27;20482;-79
2023/06/17 06:13:21;;;;;;;5.80;1.77;;;;;;;15.41;96.28;94601.47;5114110;28;20494;-79
2023/06/17 06:15:46;;;;;;;2.55;1.80;;;;;;;14.86;96.44;94491.16;5114471;28;20027;-79
2023/06/17 06:18:13;;;;;;;4.68;2.00;;;;;;;15.55;95.52;94606.69;5135966;27;20110;-79
2023/06/17 06:20:39;;;;;;;9.77;2.60;;;;;;;15.43;98.16;94569.09;5136666;27;20049;-79
2023/06/17 06:23:04;;;;;;;6.32;2.65;;;;;;;15.42;98.40;94556.84;5113923;28;21227;-79
2023/06/17 06:25:29;;;;;;;4.10;1.95;;;;;;;15.58;95.74;94594.56;5111667;27;20031;-78
2023/06/17 06:27:55;;;;;;;5.70;2.28;;;;;;;15.52;95.03;94582.44;5117364;27;20055;-79
2023/06/17 06:30:20;;;;;;;3.25;1.95;;;;;;;15.71;93.67;94591.72;5136267;27;20027;-79
2023/06/17 06:32:46;;;;;;;6.15;1.92;;;;;;;15.56;93.92;94584.22;5136273;27;20027;-79
2023/06/17 06:35:11;;;;;;;4.15;2.00;;;;;;;15.70;94.53;94592.81;5127644;27;20485;-79
2023/06/17 06:37:37;;;;;;;5.70;1.60;;;;;;;15.87;93.99;94625.94;5135394;27;20035;-79
2023/06/17 06:40:05;;;;;;;6.15;2.45;;;;;;;15.70;95.08;94600.03;5116923;27;20047;-79
2023/06/17 06:42:30;;;;;;;7.50;2.75;;;;;;;15.82;95.08;94613.53;5136045;27;20031;-79
2023/06/17 06:44:56;;;;;;;4.10;2.13;;;;;;;15.41;94.24;94577.44;5114467;28;20033;-79
2023/06/17 06:47:21;;;;;;;6.22;2.53;;;;;;;15.47;95.35;94602.13;5110595;27;20458;-79
2023/06/17 06:49:47;;;;;;;6.43;2.63;;;;;;;15.36;95.95;94611.56;5117343;27;20056;-79
2023/06/17 06:52:12;;;;;;;6.00;1.95;;;;;;;15.05;95.73;94545.75;5136009;27;20031;-79
2023/06/17 06:54:38;;;;;;;4.68;2.28;;;;;;;14.90;95.60;94572.94;5136574;27;20048;-79
2023/06/17 06:57:03;;;;;;;3.50;1.90;;;;;;;15.18;97.43;94629.47;5133367;27;20031;-79
2023/06/17 06:59:29;;;;;;;6.47;2.20;;;;;;;14.78;97.59;94572.00;5129656;27;20038;-79
2023/06/17 07:01:54;;;;;;;6.90;2.67;;;;;;;15.07;99.70;94564.16;5115479;27;20122;-79
2023/06/17 07:04:20;;;;;;;3.85;1.98;;;;;;;15.00;97.16;94561.94;5136325;27;20540;-79
2023/06/17 07:06:46;;;;;;;2.30;1.70;;;;;;;15.40;98.03;94591.91;5114336;28;20466;-79
2023/06/17 07:09:11;;;;;;;9.93;3.00;;;;;;;15.53;97.42;94600.06;5135304;27;20047;-79
2023/06/17 07:11:37;;;;;;;10.43;2.00;;;;;;;15.80;97.00;94619.19;5135195;27;20505;-78
2023/06/17 07:14:02;;;;;;;8.55;2.10;;;;;;;15.77;97.28;94578.94;5116076;27;20119;-79
2023/06/17 07:16:28;;;;;;;4.18;2.03;;;;;;;16.09;96.94;94583.69;5113821;28;20035;-79
2023/06/17 07:18:53;;;;;;;4.18;1.88;;;;;;;16.23;95.32;94588.81;5114775;27;20590;-79
2023/06/17 07:21:19;;;;;;;2.10;1.48;;;;;;;16.06;92.63;94575.53;5135123;27;20061;-79
2023/06/17 07:23:44;;;;;;;3.58;1.90;;;;;;;16.20;95.14;94600.94;5113479;28;20059;-79
2023/06/17 07:26:09;;;;;;;3.88;1.80;;;;;;;16.34;93.42;94615.97;5113405;28;20036;-79
2023/06/17 07:28:35;;;;;;;2.13;1.50;;;;;;;15.77;93.38;94552.22;5130375;27;20118;-79
2023/06/17 07:31:01;;;;;;;5.72;2.15;;;;;;;15.94;94.64;94594.16;5112481;28;20035;-79
2023/06/17 07:33:26;;;;;;;5.00;2.17;;;;;;;15.51;95.66;94568.28;5128153;27;20557;-79
2023/06/17 07:35:52;;;;;;;4.45;1.70;;;;;;;15.64;95.49;94620.03;5113314;28;20023;-79
2023/06/17 07:38:17;;;;;;;3.58;2.20;;;;;;;15.31;96.50;94535.03;5113304;28;20023;-79
2023/06/17 07:40:46;;;;;;;2.78;2.03;;;;;;;16.11;96.33;94626.16;5113336;28;20081;-79
2023/06/17 07:43:12;;;;;;;3.28;1.77;;;;;;;16.11;95.22;94624.25;5115857;27;20059;-79
2023/06/17 07:45:37;;;;;;;4.35;2.20;;;;;;;15.97;95.84;94580.13;5116347;27;20092;-79
2023/06/17 07:48:03;;;;;;;3.83;1.98;;;;;;;15.71;94.21;94542.81;5116646;27;20457;-79
2023/06/17 07:50:29;;;;;;;6.20;2.30;;;;;;;16.46;95.27;94640.97;5113589;28;20112;-80
2023/06/17 07:52:54;;;;;;;4.28;1.92;;;;;;;16.46;93.71;94616.09;5112746;28;20112;-80
2023/06/17 07:55:21;;;;;;;6.30;1.70;;;;;;;16.26;93.72;94622.16;5127923;27;20489;-79
2023/06/17 07:57:47;;;;;;;1.67;1.42;;;;;;;16.35;94.43;94617.56;5113380;27;20084;-79
2023/06/17 08:00:13;;;;;;;2.97;1.77;;;;;;;15.91;93.90;94590.22;5113084;28;20027;-79
2023/06/17 08:02:42;;;;;;;2.03;1.55;;;;;;;16.43;93.31;94632.78;5131023;27;20031;-79
2023/06/17 08:05:09;;;;;;;3.05;1.30;;;;;;;15.97;92.34;94588.94;5135514;27;20100;-79
2023/06/17 08:07:35;;;;;;;2.60;1.60;;;;;;;16.11;93.88;94623.47;5112155;28;20104;-79
2023/06/17 08:10:00;;;;;;;4.38;1.77;;;;;;;16.28;94.08;94639.47;5114044;27;20123;-79
2023/06/17 08:12:26;;;;;;;4.55;1.90;;;;;;;16.20;94.08;94602.84;5134540;27;20431;-79
2023/06/17 08:14:52;;;;;;;2.92;1.60;;;;;;;16.42;93.70;94596.41;5113443;28;20041;-79
2023/06/17 08:17:18;;;;;;;2.55;1.40;;;;;;;16.46;91.53;94619.56;5111673;28;20039;-79
2023/06/17 08:19:43;;;;;;;2.38;1.83;;;;;;;16.53;92.04;94654.63;5130250;28;20046;-79
2023/06/17 08:22:10;;;;;;;2.13;1.20;;;;;;;15.93;93.63;94592.56;5134420;28;20120;-80
2023/06/17 08:24:36;;;;;;;4.80;1.77;;;;;;;16.30;94.44;94656.00;5134277;28;20031;-79
2023/06/17 08:27:02;;;;;;;2.42;1.27;;;;;;;16.19;95.19;94636.03;5111813;28;20088;-79
2023/06/17 08:29:27;;;;;;;3.63;1.58;;;;;;;16.15;96.20;94622.53;5127953;28;20043;-79
2023/06/17 08:31:53;;;;;;;2.60;1.50;;;;;;;16.11;95.51;94650.22;5113041;28;20414;-80
2023/06/17 08:34:21;;;;;;;3.63;1.58;;;;;;;16.01;97.22;94643.38;5134654;28;20031;-79
2023/06/17 08:36:49;;;;;;;4.43;1.80;;;;;;;15.87;98.97;94642.75;5133903;28;20122;-79
2023/06/17 08:39:15;;;;;;;4.88;1.70;;;;;;;15.89;98.66;94632.53;5111674;28;20027;-79
2023/06/17 08:41:42;;;;;;;4.88;1.70;;;;;;;16.11;98.29;94647.56;5111503;28;20480;-79
2023/06/17 08:44:11;;;;;;;3.97;1.40;;;;;;;16.21;96.45;94665.94;5114738;28;20084;-78
2023/06/17 08:46:38;;;;;;;1.60;1.30;;;;;;;16.13;96.30;94659.50;5115129;28;20066;-79
2023/06/17 08:49:07;;;;;;;3.70;1.50;;;;;;;15.64;96.71;94617.38;5118475;27;20035;-79
2023/06/17 08:51:33;;;;;;;7.90;2.15;;;;;;;15.88;97.99;94617.59;5115783;28;20031;-79
2023/06/17 08:54:00;;;;;;;3.30;1.88;;;;;;;16.28;98.58;94654.72;5117663;27;20027;-79
2023/06/17 08:56:26;;;;;;;4.03;1.80;;;;;;;16.28;98.64;94636.78;5116357;28;20031;-79
2023/06/17 08:58:54;;;;;;;2.42;1.70;;;;;;;16.10;98.66;94612.00;5136500;27;20378;-79
2023/06/17 09:01:21;;;;;;;5.47;1.98;;;;;;;16.40;99.15;94620.06;5116608;28;20040;-80
2023/06/17 09:03:50;;;;;;;3.22;2.58;;;;;;;16.07;98.41;94582.44;5134855;27;20047;-79
2023/06/17 09:06:20;;;;;;;4.07;2.35;;;;;;;16.21;98.66;94577.66;5116052;28;20483;-78
2023/06/17 09:08:47;;;;;;;4.47;2.15;;;;;;;16.43;95.82;94648.84;5134723;27;20565;-79
2023/06/17 09:11:13;;;;;;;4.25;2.58;;;;;;;16.51;98.65;94630.06;5115546;28;20044;-79
2023/06/17 09:13:38;;;;;;;4.18;2.10;;;;;;;16.37;96.72;94645.56;5115379;28;20169;-79
2023/06/17 09:16:04;;;;;;;3.13;2.45;;;;;;;16.18;97.38;94618.41;5118502;27;20035;-79
2023/06/17 09:18:36;;;;;;;4.03;2.30;;;;;;;16.44;98.75;94650.41;5115998;28;20165;-79
2023/06/17 09:21:04;;;;;;;5.93;2.95;;;;;;;16.47;98.44;94655.13;5117729;27;20043;-79
2023/06/17 09:23:30;;;;;;;5.60;3.00;;;;;;;16.57;99.81;94657.41;5137447;27;20039;-79
2023/06/17 09:26:05;;;;;;;6.88;2.90;;;;;;;16.44;98.80;94611.06;5116509;27;20038;-79
2023/06/17 09:28:31;;;;;;;3.92;3.22;;;;;;;16.57;97.57;94636.00;5115142;28;20361;-78
2023/06/17 09:30:59;;;;;;;6.55;2.97;;;;;;;16.75;96.98;94656.25;5114892;28;20031;-79
2023/06/17 09:33:26;;;;;;;5.53;4.03;;;;;;;16.81;98.63;94636.22;5111244;27;20118;-78
2023/06/17 09:36:01;;;;;;;4.10;3.05;;;;;;;16.23;94.94;94588.81;5135434;27;20031;-79
2023/06/17 09:38:28;;;;;;;3.85;3.03;;;;;;;16.18;95.78;94562.22;5130631;27;20043;-79
2023/06/17 09:40:54;;;;;;;10.63;3.83;;;;;;;16.59;96.08;94620.41;5116214;27;20038;-79
2023/06/17 09:43:23;;;;;;;7.65;3.55;;;;;;;16.92;96.20;94647.34;5137468;27;20481;-79
2023/06/17 09:45:54;;;;;;;5.05;4.05;;;;;;;17.02;95.99;94652.28;5115496;27;20084;-79
2023/06/17 09:48:20;;;;;;;;;;;;;;;17.08;95.10;94651.00;5115036;28;20028;-79
2023/06/17 09:50:47;;;;;;;3.40;2.60;;;;;;;16.75;92.79;94620.66;5115315;28;19912;-80
2023/06/17 09:53:13;;;;;;;3.20;2.42;;;;;;;16.87;93.17;94621.50;5115728;28;20043;-79
2023/06/17 09:55:39;;;;;;;3.13;2.33;;;;;;;16.94;93.80;94604.91;5115487;28;20035;-79
2023/06/17 09:58:06;;;;;;;5.72;2.20;;;;;;;16.92;90.82;94631.25;5118020;27;22078;-79
2023/06/17 10:00:32;;;;;;;5.65;2.40;;;;;;;17.38;93.01;94659.75;5136890;27;20546;-79
2023/06/17 10:02:58;;;;;;;4.78;2.50;;;;;;;17.48;91.83;94650.50;5116361;27;20114;-80
2023/06/17 10:05:27;;;;;;;5.10;2.80;;;;;;;17.54;89.73;94652.66;5136464;27;20030;-80
2023/06/17 10:07:53;;;;;;;5.25;2.38;;;;;;;17.10;86.53;94608.56;5136776;27;20055;-80
2023/06/17 10:10:20;;;;;;;4.43;1.80;;;;;;;17.30;88.36;94629.22;5114629;28;20153;-79
2023/06/17 10:12:48;;;;;;;4.20;1.83;;;;;;;17.64;87.91;94664.88;5132907;27;20399;-79
2023/06/17 10:15:17;;;;;;;3.85;2.10;;;;;;;17.64;87.37;94670.25;5114190;28;20383;-79
2023/06/17 10:17:45;;;;;;;4.43;2.40;;;;;;;17.69;88.27;94649.41;5132375;27;20031;-80
2023/06/17 10:20:13;;;;;;;3.17;1.67;;;;;;;17.71;86.91;94665.91;5114403;28;20055;-80
2023/06/17 10:22:39;;;;;;;4.25;1.95;;;;;;;17.60;87.21;94645.97;5114531;28;20430;-80
2023/06/17 10:25:06;;;;;;;3.83;1.42;;;;;;;17.48;86.30;94667.38;5135623;27;20035;-80
2023/06/17 10:27:32;;;;;;;2.28;1.83;;;;;;;17.19;87.66;94627.25;5114091;28;20118;-79
2023/06/17 10:29:58;;;;;;;5.78;1.60;;;;;;;17.21;87.41;94623.16;5116394;27;20039;-79
2023/06/17 10:32:25;;;;;;;2.33;1.70;;;;;;;16.80;85.86;94566.91;5114031;28;20039;-80
2023/06/17 10:35:06;;;;;;;6.97;1.92;;;;;;;17.40;86.53;94676.25;5114935;27;20063;-80
2023/06/17 10:37:52;;;;;;;3.07;1.67;;;;;;;17.34;88.13;94675.69;5114267;28;20075;-80
2023/06/17 10:40:21;;;;;;;3.63;1.92;;;;;;;17.09;88.15;94665.94;5113061;28;20043;-79
2023/06/17 10:43:17;;;;;;;2.63;2.03;;;;;;;16.89;90.84;94664.03;5114149;27;20412;-79
2023/06/17 10:45:50;;;;;;;4.95;2.50;;;;;;;16.99;91.57;94677.06;5119219;27;20062;-79
2023/06/17 10:48:20;;;;;;;3.75;2.70;;;;;;;16.88;91.01;94655.22;5136039;27;20031;-79
2023/06/17 10:50:51;;;;;;;5.57;3.47;;;;;;;16.82;92.20;94632.41;5114574;28;20490;-79
2023/06/17 10:53:17;;;;;;;;;;;;;;;17.09;92.25;94684.69;5136419;27;20031;-80
2023/06/17 10:55:43;;;;;;;6.22;3.30;;;;;;;17.03;93.11;94655.75;5136433;27;20369;-79
2023/06/17 10:58:12;;;;;;;6.45;3.58;;;;;;;17.13;91.73;94685.63;5116835;27;20031;-79
2023/06/17 11:00:37;;;;;;;8.35;4.22;;;;;;;17.14;90.47;94689.88;5113828;28;20031;-79
2023/06/17 11:03:04;;;;;;;5.38;4.32;;;;;;;16.68;91.48;94658.66;5116158;27;20038;-79
2023/06/17 11:05:36;;;;;;;5.90;4.32;;;;;;;16.70;90.75;94677.09;5113532;28;20027;-79
2023/06/17 11:08:03;;;;;;;5.60;4.53;;;;;;;16.83;93.55;94700.16;5115373;27;20055;-79
2023/06/17 11:10:29;;;;;;;5.18;4.68;;;;;;;16.31;92.30;94638.84;5112925;28;20043;-79
2023/06/17 11:12:54;;;;;;;8.30;4.53;;;;;;;16.62;93.26;94677.91;5114593;27;20073;-79
2023/06/17 11:15:23;;;;;;;8.85;4.70;;;;;;;16.44;93.80;94651.19;5135129;27;20461;-79
2023/06/17 11:18:02;;;;;;;6.63;5.05;;;;;;;16.21;92.67;94617.78;5113149;27;20382;-79
2023/06/17 11:20:32;;;;;;;8.55;5.75;;;;;;;15.97;93.70;94580.91;5113008;28;20054;-79
2023/06/17 11:22:58;;;;;;;14.63;6.50;;;;;;;16.71;95.32;94692.81;5097737;27;20131;-79
2023/06/17 11:25:24;;;;;;;12.32;6.88;;;;;;;15.74;95.44;94558.97;5134735;27;20035;-78
2023/06/17 11:27:50;;;;;;;15.15;8.23;;;;;;;16.45;97.18;94674.19;5113637;28;20123;-78
2023/06/17 11:30:16;;;;;;;9.32;6.93;;;;;;;16.34;96.02;94664.13;5132334;27;20023;-78
2023/06/17 11:32:43;;;;;;;9.27;7.30;;;;;;;16.54;97.39;94692.88;5135296;27;20091;-78